Time;durP1;ratioP1;P1;durP2;ratioP2;P2;SDS_P1;SDS_P2;PMS_P1;PMS_P2;Temp;Humidity;BMP_temperature;BMP_pressure;BME280_temperature;BME280_humidity;BME280_pressure;Samples;Min_cycle;Max_cycle;Signal;HPM_P1;HPM_P2
2021/05/06 00:01:39;;;;;;;7.55;5.05;;;;;;;;;;5035213;28;20364;-72
2021/05/06 00:34:17;;;;;;;5.20;4.25;;;;;;;;;;5034234;28;20063;-71
2021/05/06 00:36:44;;;;;;;5.95;5.30;;;;;;;;;;5034805;28;20028;-71
2021/05/06 00:39:15;;;;;;;9.82;4.65;;;;;;;;;;5035799;28;20105;-71
2021/05/06 00:41:48;;;;;;;5.03;4.55;;;;;;;;;;5035453;28;20026;-71
2021/05/06 01:06:24;;;;;;;5.93;4.68;;;;;;;;;;5034044;28;20029;-69
2021/05/06 01:08:55;;;;;;;4.80;4.07;;;;;;;;;;5034450;28;20079;-70
2021/05/06 01:11:31;;;;;;;5.40;3.97;;;;;;;;;;5034730;28;20022;-70
2021/05/06 01:14:06;;;;;;;5.35;3.53;;;;;;;;;;5034312;28;20379;-70
2021/05/06 01:16:32;;;;;;;4.60;3.58;;;;;;;;;;5034317;28;20398;-71
2021/05/06 01:18:58;;;;;;;3.95;3.55;;;;;;;;;;5034302;28;20029;-71
2021/05/06 01:21:24;;;;;;;4.00;3.40;;;;;;;;;;5034442;28;20060;-70
2021/05/06 01:23:50;;;;;;;4.95;4.25;;;;;;;;;;5034325;28;20033;-70
2021/05/06 01:26:22;;;;;;;4.18;3.78;;;;;;;;;;5034053;28;20049;-71
2021/05/06 01:28:54;;;;;;;4.15;3.72;;;;;;;;;;5033924;28;20025;-71
2021/05/06 01:31:24;;;;;;;4.78;3.95;;;;;;;;;;5034577;28;20478;-71
2021/05/06 01:33:59;;;;;;;4.55;3.80;;;;;;;;;;5034431;28;20049;-71
2021/05/06 01:36:29;;;;;;;3.58;3.28;;;;;;;;;;5033845;28;20112;-71
2021/05/06 01:39:09;;;;;;;7.07;3.88;;;;;;;;;;5033840;28;20032;-71
2021/05/06 01:47:15;;;;;;;4.25;3.55;;;;;;;;;;5032896;28;20510;-71
2021/05/06 01:58:06;;;;;;;4.18;3.47;;;;;;;;;;5032690;28;20491;-71
2021/05/06 02:00:36;;;;;;;3.63;3.30;;;;;;;;;;5034101;28;20033;-70
2021/05/06 02:03:02;;;;;;;3.72;3.30;;;;;;;;;;5034117;28;20055;-71
2021/05/06 02:05:28;;;;;;;5.30;3.88;;;;;;;;;;5033642;28;20032;-71
2021/05/06 02:07:55;;;;;;;4.13;3.47;;;;;;;;;;5033606;28;20084;-71
2021/05/06 02:10:23;;;;;;;4.05;3.65;;;;;;;;;;5033725;28;20037;-71
2021/05/06 02:12:49;;;;;;;10.02;3.80;;;;;;;;;;5033398;28;20025;-71
2021/05/06 02:15:26;;;;;;;6.22;4.10;;;;;;;;;;5033670;28;20017;-71
2021/05/06 02:17:54;;;;;;;4.55;3.85;;;;;;;;;;5034012;28;20022;-71
2021/05/06 02:20:20;;;;;;;5.25;3.50;;;;;;;;;;5033547;28;20025;-71
2021/05/06 02:22:48;;;;;;;5.68;3.78;;;;;;;;;;5033450;28;20037;-71
2021/05/06 02:25:14;;;;;;;3.35;2.92;;;;;;;;;;5033393;28;20025;-71
2021/05/06 02:27:40;;;;;;;4.45;3.58;;;;;;;;;;5033294;28;20131;-70
2021/05/06 02:30:07;;;;;;;3.50;3.20;;;;;;;;;;5033541;28;20029;-71
2021/05/06 02:32:33;;;;;;;5.38;3.75;;;;;;;;;;5033430;28;20052;-71
2021/05/06 02:34:59;;;;;;;4.88;3.55;;;;;;;;;;5032960;28;20104;-70
2021/05/06 02:37:26;;;;;;;6.10;3.65;;;;;;;;;;5033382;28;20034;-71
2021/05/06 02:39:52;;;;;;;3.45;2.88;;;;;;;;;;5033008;28;20025;-70
2021/05/06 02:42:18;;;;;;;3.40;3.10;;;;;;;;;;5033333;28;20427;-70
2021/05/06 02:44:44;;;;;;;6.70;4.32;;;;;;;;;;5033012;28;20022;-71
2021/05/06 02:47:10;;;;;;;4.80;3.20;;;;;;;;;;5033508;28;20035;-70
2021/05/06 02:49:37;;;;;;;5.20;3.35;;;;;;;;;;5037020;28;20044;-70
2021/05/06 02:52:07;;;;;;;4.22;3.58;;;;;;;;;;5037226;28;20052;-70
2021/05/06 02:54:42;;;;;;;3.83;3.17;;;;;;;;;;5037179;28;20805;-70
2021/05/06 02:57:18;;;;;;;3.92;3.13;;;;;;;;;;5037516;28;20379;-70
2021/05/06 03:05:17;;;;;;;4.28;2.90;;;;;;;;;;5036554;28;20033;-71
2021/05/06 03:07:49;;;;;;;7.63;3.30;;;;;;;;;;5037083;28;20052;-70
2021/05/06 03:10:29;;;;;;;3.53;3.22;;;;;;;;;;5037166;28;20018;-70
2021/05/06 03:13:15;;;;;;;3.58;3.03;;;;;;;;;;5036846;28;20030;-71
2021/05/06 03:24:01;;;;;;;3.75;3.45;;;;;;;;;;5036062;28;20030;-70
2021/05/06 03:26:28;;;;;;;14.70;10.30;;;;;;;;;;5036529;28;20073;-70
2021/05/06 03:28:59;;;;;;;21.25;13.57;;;;;;;;;;5036366;28;20026;-70
2021/05/06 03:42:36;;;;;;;33.97;19.30;;;;;;;;;;5035317;28;20502;-70
2021/05/06 04:15:38;;;;;;;27.48;14.90;;;;;;;;;;5035133;28;20044;-69
2021/05/06 04:18:13;;;;;;;20.70;12.50;;;;;;;;;;5035658;28;20490;-70
2021/05/06 04:26:16;;;;;;;16.90;10.07;;;;;;;;;;5033766;28;20050;-72
2021/05/06 04:37:02;;;;;;;23.48;10.73;;;;;;;;;;5033603;28;20060;-70
2021/05/06 04:39:33;;;;;;;17.88;11.13;;;;;;;;;;5035352;28;20041;-70
2021/05/06 04:42:30;;;;;;;21.05;11.05;;;;;;;;;;5035301;28;20115;-69
2021/05/06 04:53:26;;;;;;;18.60;9.98;;;;;;;;;;5033983;28;20037;-71
2021/05/06 04:55:53;;;;;;;18.10;8.57;;;;;;;;;;5033831;28;20029;-71
2021/05/06 04:58:45;;;;;;;32.80;8.68;;;;;;;;;;5035043;28;20021;-70
2021/05/06 05:06:42;;;;;;;12.98;8.45;;;;;;;;;;5033879;28;20043;-71
2021/05/06 05:12:10;;;;;;;12.30;7.95;;;;;;;;;;5032863;28;20092;-70
2021/05/06 05:15:00;;;;;;;14.68;8.00;;;;;;;;;;5034319;28;20116;-70
2021/05/06 05:20:14;;;;;;;18.48;8.05;;;;;;;;;;5033484;28;20045;-67
2021/05/06 05:25:38;;;;;;;24.60;7.05;;;;;;;;;;5033887;28;20029;-67
2021/05/06 05:28:05;;;;;;;16.73;6.47;;;;;;;;;;5034400;28;20049;-67
2021/05/06 05:30:32;;;;;;;15.50;6.43;;;;;;;;;;5034377;28;20025;-67
2021/05/06 05:32:59;;;;;;;21.80;6.55;;;;;;;;;;5033856;28;20482;-68
2021/05/06 05:35:36;;;;;;;17.73;7.43;;;;;;;;;;5034103;28;20025;-68
2021/05/06 05:38:12;;;;;;;11.63;6.38;;;;;;;;;;5034527;28;20022;-67
2021/05/06 05:40:47;;;;;;;17.77;6.35;;;;;;;;;;5033890;28;20044;-69
2021/05/06 05:43:29;;;;;;;11.63;6.97;;;;;;;;;;5034239;28;20040;-68
2021/05/06 05:54:31;;;;;;;12.50;5.45;;;;;;;;;;5032019;28;20045;-69
2021/05/06 05:54:34;;;;;;;11.00;5.38;;;;;;;;;;5032802;28;20086;-68
2021/05/06 05:56:58;;;;;;;9.98;5.07;;;;;;;;;;5032866;28;20384;-69
2021/05/06 05:59:24;;;;;;;10.40;5.63;;;;;;;;;;5033901;28;20025;-69
2021/05/06 06:01:51;;;;;;;10.63;5.65;;;;;;;;;;5033934;28;20075;-68
2021/05/06 06:04:17;;;;;;;6.57;4.97;;;;;;;;;;5033691;28;20025;-69
2021/05/06 06:06:43;;;;;;;10.65;5.57;;;;;;;;;;5033114;28;20040;-67
2021/05/06 06:09:09;;;;;;;9.27;4.72;;;;;;;;;;5033571;28;20538;-69
2021/05/06 06:11:36;;;;;;;17.65;5.80;;;;;;;;;;5033682;28;20026;-69
2021/05/06 06:14:06;;;;;;;8.70;5.05;;;;;;;;;;5033459;28;20025;-69
2021/05/06 06:16:33;;;;;;;13.80;5.15;;;;;;;;;;5033484;28;20448;-69
2021/05/06 06:19:00;;;;;;;11.45;4.95;;;;;;;;;;5033340;28;20025;-68
2021/05/06 06:21:32;;;;;;;11.82;4.35;;;;;;;;;;5033372;28;20044;-69
2021/05/06 06:23:58;;;;;;;9.15;5.03;;;;;;;;;;5033677;28;20052;-69
2021/05/06 06:26:24;;;;;;;7.45;4.18;;;;;;;;;;5033011;28;20500;-68
2021/05/06 06:28:53;;;;;;;6.93;4.35;;;;;;;;;;5033340;28;20030;-69
2021/05/06 06:31:22;;;;;;;6.53;4.10;;;;;;;;;;5033440;28;20079;-69
2021/05/06 06:33:48;;;;;;;10.63;4.82;;;;;;;;;;5033236;28;20018;-69
2021/05/06 06:36:15;;;;;;;5.63;3.95;;;;;;;;;;5033656;28;20030;-69
2021/05/06 06:38:41;;;;;;;9.32;3.50;;;;;;;;;;5033164;28;20025;-69
2021/05/06 06:41:09;;;;;;;9.73;4.95;;;;;;;;;;5033591;28;20018;-69
2021/05/06 06:43:36;;;;;;;5.95;3.78;;;;;;;;;;5033385;28;20116;-68
2021/05/06 06:46:04;;;;;;;5.25;4.28;;;;;;;;;;5033200;28;20029;-68
2021/05/06 06:48:30;;;;;;;6.10;4.05;;;;;;;;;;5032858;28;20033;-68
2021/05/06 06:50:56;;;;;;;6.75;3.63;;;;;;;;;;5033032;28;20036;-69
2021/05/06 06:53:22;;;;;;;6.57;4.05;;;;;;;;;;5033222;28;20539;-69
2021/05/06 06:55:49;;;;;;;9.20;3.67;;;;;;;;;;5033588;28;20033;-69
2021/05/06 06:58:16;;;;;;;6.07;3.88;;;;;;;;;;5032970;28;20065;-69
2021/05/06 07:00:43;;;;;;;5.82;4.20;;;;;;;;;;5033084;28;20029;-69
2021/05/06 07:03:09;;;;;;;4.75;3.92;;;;;;;;;;5032739;28;20482;-69
2021/05/06 07:05:35;;;;;;;4.95;3.20;;;;;;;;;;5033007;28;20030;-68
2021/05/06 07:08:19;;;;;;;8.27;4.20;;;;;;;;;;5033543;28;20037;-68
2021/05/06 07:10:46;;;;;;;4.95;3.53;;;;;;;;;;5032980;28;20030;-69
2021/05/06 07:13:12;;;;;;;4.43;3.50;;;;;;;;;;5033279;28;20029;-68
2021/05/06 07:15:38;;;;;;;5.90;3.00;;;;;;;;;;5032679;28;20077;-69
2021/05/06 07:18:07;;;;;;;4.47;2.75;;;;;;;;;;5032890;28;20040;-69
2021/05/06 07:20:33;;;;;;;4.50;3.08;;;;;;;;;;5033154;28;20029;-69
2021/05/06 07:22:59;;;;;;;3.80;3.08;;;;;;;;;;5032508;28;20048;-69
2021/05/06 07:25:25;;;;;;;7.60;3.78;;;;;;;;;;5033041;28;20036;-69
2021/05/06 07:27:51;;;;;;;7.95;3.53;;;;;;;;;;5032978;28;20132;-69
2021/05/06 07:30:18;;;;;;;3.90;2.95;;;;;;;;;;5032733;28;20044;-69
2021/05/06 07:32:44;;;;;;;4.93;3.38;;;;;;;;;;5032661;28;20099;-69
2021/05/06 07:35:11;;;;;;;4.25;3.13;;;;;;;;;;5035280;28;20022;-71
2021/05/06 07:37:37;;;;;;;4.97;3.15;;;;;;;;;;5036380;28;20072;-72
2021/05/06 07:40:03;;;;;;;4.57;3.25;;;;;;;;;;5036519;28;20025;-72
2021/05/06 07:42:29;;;;;;;4.78;3.20;;;;;;;;;;5036279;28;20035;-71
2021/05/06 07:44:55;;;;;;;3.92;2.75;;;;;;;;;;5035863;28;20025;-71
2021/05/06 07:47:21;;;;;;;8.38;3.65;;;;;;;;;;5036059;28;20033;-72
2021/05/06 07:49:49;;;;;;;3.78;3.30;;;;;;;;;;5036069;28;20463;-72
2021/05/06 07:52:18;;;;;;;5.82;3.53;;;;;;;;;;5036323;28;20026;-72
2021/05/06 07:54:44;;;;;;;4.05;2.72;;;;;;;;;;5035700;28;20028;-71
2021/05/06 07:57:10;;;;;;;4.47;2.47;;;;;;;;;;5035901;28;20160;-73
2021/05/06 07:59:36;;;;;;;4.82;3.25;;;;;;;;;;5035596;28;20048;-72
2021/05/06 08:02:03;;;;;;;6.28;3.03;;;;;;;;;;5035801;28;20036;-72
2021/05/06 08:04:29;;;;;;;5.13;3.22;;;;;;;;;;5035759;28;20036;-73
2021/05/06 08:06:56;;;;;;;5.97;3.72;;;;;;;;;;5035393;28;20037;-72
2021/05/06 08:09:22;;;;;;;4.75;2.58;;;;;;;;;;5036118;28;20414;-73
2021/05/06 08:11:52;;;;;;;4.50;3.67;;;;;;;;;;5035869;28;20036;-73
2021/05/06 08:14:18;;;;;;;4.03;3.00;;;;;;;;;;5035402;28;20108;-73
2021/05/06 08:16:44;;;;;;;3.33;2.55;;;;;;;;;;5035479;28;20026;-73
2021/05/06 08:19:10;;;;;;;4.18;2.72;;;;;;;;;;5035632;28;20383;-72
2021/05/06 08:21:37;;;;;;;2.58;2.30;;;;;;;;;;5035669;28;20124;-72
2021/05/06 08:24:03;;;;;;;5.10;3.10;;;;;;;;;;5035621;28;20029;-71
2021/05/06 08:26:29;;;;;;;4.47;3.55;;;;;;;;;;5035278;28;20133;-72
2021/05/06 08:28:56;;;;;;;4.38;3.00;;;;;;;;;;5035138;28;20422;-72
2021/05/06 08:31:22;;;;;;;4.43;3.17;;;;;;;;;;5035997;28;20029;-72
2021/05/06 08:33:48;;;;;;;4.97;2.72;;;;;;;;;;5035364;28;20032;-74
2021/05/06 08:36:14;;;;;;;4.13;2.95;;;;;;;;;;5035174;28;20021;-72
2021/05/06 08:38:40;;;;;;;6.80;2.80;;;;;;;;;;5034851;28;20021;-71
2021/05/06 08:41:06;;;;;;;4.10;3.15;;;;;;;;;;5035197;28;20026;-71
2021/05/06 08:43:35;;;;;;;7.38;2.30;;;;;;;;;;5034920;28;20021;-71
2021/05/06 08:46:01;;;;;;;5.28;3.15;;;;;;;;;;5035356;28;20374;-71
2021/05/06 08:48:27;;;;;;;3.85;2.67;;;;;;;;;;5034895;28;20044;-71
2021/05/06 08:50:54;;;;;;;4.10;3.03;;;;;;;;;;5034245;28;20412;-71
2021/05/06 08:53:20;;;;;;;3.88;2.95;;;;;;;;;;5034825;28;20530;-71
2021/05/06 08:55:46;;;;;;;3.33;2.55;;;;;;;;;;5034672;28;20379;-72
2021/05/06 08:58:12;;;;;;;4.18;2.72;;;;;;;;;;5034690;28;20103;-71
2021/05/06 09:00:38;;;;;;;4.13;3.30;;;;;;;;;;5034802;28;20033;-70
2021/05/06 09:03:05;;;;;;;2.80;2.30;;;;;;;;;;5034745;28;20025;-70
2021/05/06 09:05:33;;;;;;;6.28;2.80;;;;;;;;;;5035065;28;20026;-71
2021/05/06 09:07:59;;;;;;;4.35;3.40;;;;;;;;;;5034744;28;20037;-71
2021/05/06 09:10:41;;;;;;;6.20;3.92;;;;;;;;;;5034854;28;20071;-71
2021/05/06 09:13:27;;;;;;;10.82;4.85;;;;;;;;;;5035403;28;20408;-70
2021/05/06 09:15:53;;;;;;;5.68;4.30;;;;;;;;;;5034045;28;20079;-72
2021/05/06 09:18:35;;;;;;;7.82;5.00;;;;;;;;;;5034641;28;20036;-72
2021/05/06 09:21:01;;;;;;;4.32;3.92;;;;;;;;;;5034095;28;20032;-72
2021/05/06 09:23:27;;;;;;;7.68;5.00;;;;;;;;;;5034009;28;20441;-72
2021/05/06 09:25:53;;;;;;;6.45;4.30;;;;;;;;;;5034392;28;20068;-72
2021/05/06 09:28:21;;;;;;;5.70;4.43;;;;;;;;;;5034436;28;20068;-74
2021/05/06 09:30:49;;;;;;;6.13;4.63;;;;;;;;;;5033815;28;20017;-73
2021/05/06 09:33:16;;;;;;;11.75;4.55;;;;;;;;;;5034239;28;20056;-71
2021/05/06 09:35:43;;;;;;;4.78;4.28;;;;;;;;;;5034179;28;20021;-71
2021/05/06 09:38:29;;;;;;;4.90;4.38;;;;;;;;;;5034166;28;20467;-72
2021/05/06 09:40:58;;;;;;;6.65;5.25;;;;;;;;;;5033009;28;20479;-70
2021/05/06 09:43:25;;;;;;;6.38;4.25;;;;;;;;;;5033896;28;20037;-70
2021/05/06 09:45:51;;;;;;;5.78;4.38;;;;;;;;;;5033989;28;20064;-71
2021/05/06 09:48:19;;;;;;;4.50;4.00;;;;;;;;;;5033806;28;20032;-71
2021/05/06 09:50:46;;;;;;;4.03;3.50;;;;;;;;;;5033791;28;20053;-71
2021/05/06 09:53:13;;;;;;;4.80;4.03;;;;;;;;;;5034206;28;20026;-71
2021/05/06 09:55:39;;;;;;;5.97;4.10;;;;;;;;;;5034292;28;20433;-75
2021/05/06 09:58:13;;;;;;;8.68;4.18;;;;;;;;;;5033327;28;20100;-70
2021/05/06 10:00:39;;;;;;;7.00;3.78;;;;;;;;;;5033556;28;20490;-70
2021/05/06 10:03:14;;;;;;;7.07;3.97;;;;;;;;;;5033683;28;20476;-72
2021/05/06 10:05:40;;;;;;;4.30;3.90;;;;;;;;;;5037296;28;20022;-70
2021/05/06 10:08:06;;;;;;;6.35;3.92;;;;;;;;;;5036967;28;20037;-72
2021/05/06 10:10:34;;;;;;;5.30;3.38;;;;;;;;;;5037648;28;20021;-71
2021/05/06 10:13:01;;;;;;;4.22;3.40;;;;;;;;;;5036633;28;20040;-70
2021/05/06 10:15:28;;;;;;;5.78;3.72;;;;;;;;;;5036615;28;20071;-70
2021/05/06 10:17:55;;;;;;;3.90;3.42;;;;;;;;;;5036903;28;20072;-72
2021/05/06 10:20:23;;;;;;;3.55;3.05;;;;;;;;;;5037028;28;20324;-71
2021/05/06 10:22:49;;;;;;;6.47;3.30;;;;;;;;;;5036747;28;20025;-72
2021/05/06 10:25:15;;;;;;;4.65;3.25;;;;;;;;;;5037238;28;20030;-73
2021/05/06 10:27:41;;;;;;;4.82;3.20;;;;;;;;;;5036860;28;20049;-72
2021/05/06 10:30:08;;;;;;;5.90;3.63;;;;;;;;;;5037116;28;20544;-72
2021/05/06 10:32:34;;;;;;;12.48;3.97;;;;;;;;;;5037270;28;20018;-72
2021/05/06 10:35:18;;;;;;;7.18;3.95;;;;;;;;;;5037310;28;20087;-72
2021/05/06 10:37:45;;;;;;;10.57;4.50;;;;;;;;;;5037418;28;20022;-73
2021/05/06 10:40:28;;;;;;;3.75;3.30;;;;;;;;;;5036962;28;20415;-73
2021/05/06 10:42:54;;;;;;;3.92;3.15;;;;;;;;;;5036839;28;20022;-72
2021/05/06 10:45:40;;;;;;;6.55;3.72;;;;;;;;;;5037639;28;20026;-72
2021/05/06 10:48:06;;;;;;;5.72;3.38;;;;;;;;;;5036571;28;20364;-72
2021/05/06 10:50:36;;;;;;;4.28;2.80;;;;;;;;;;5037522;28;20025;-73
2021/05/06 10:53:02;;;;;;;9.23;4.13;;;;;;;;;;5037749;28;20029;-73
2021/05/06 10:55:46;;;;;;;6.75;3.00;;;;;;;;;;5036795;28;20021;-73
2021/05/06 10:58:32;;;;;;;10.25;3.80;;;;;;;;;;5037275;28;20022;-72
2021/05/06 11:01:09;;;;;;;6.20;3.20;;;;;;;;;;5034584;28;20022;-72
2021/05/06 11:03:35;;;;;;;4.05;2.83;;;;;;;;;;5035382;28;20033;-71
2021/05/06 11:06:01;;;;;;;8.32;3.03;;;;;;;;;;5034496;28;20018;-67
2021/05/06 11:08:29;;;;;;;7.32;2.70;;;;;;;;;;5034360;28;20072;-67
2021/05/06 11:11:16;;;;;;;11.93;3.10;;;;;;;;;;5038360;28;20032;-66
2021/05/06 11:14:02;;;;;;;7.57;3.10;;;;;;;;;;5037895;28;20108;-67
2021/05/06 11:16:28;;;;;;;5.55;3.47;;;;;;;;;;5037125;28;20430;-70
2021/05/06 11:18:56;;;;;;;3.78;2.92;;;;;;;;;;5038450;28;20060;-68
2021/05/06 11:21:40;;;;;;;4.88;3.85;;;;;;;;;;5038960;28;20032;-68
2021/05/06 11:24:26;;;;;;;6.40;2.80;;;;;;;;;;5039086;28;20030;-68
2021/05/06 11:27:10;;;;;;;3.22;2.70;;;;;;;;;;5037362;28;20585;-70
2021/05/06 11:29:38;;;;;;;9.27;3.10;;;;;;;;;;5038949;28;20071;-68
2021/05/06 11:32:04;;;;;;;5.63;2.83;;;;;;;;;;5038723;28;20021;-68
2021/05/06 11:34:32;;;;;;;8.50;3.08;;;;;;;;;;5037913;28;20021;-66
2021/05/06 11:37:14;;;;;;;4.65;3.55;;;;;;;;;;5035697;28;20040;-68
2021/05/06 11:39:50;;;;;;;7.93;2.95;;;;;;;;;;5036461;28;20080;-68
2021/05/06 11:42:16;;;;;;;14.75;3.92;;;;;;;;;;5036430;28;20029;-68
2021/05/06 11:44:42;;;;;;;11.48;4.82;;;;;;;;;;5035654;28;20463;-68
2021/05/06 11:47:08;;;;;;;19.27;6.05;;;;;;;;;;5035964;28;20071;-67
2021/05/06 11:49:34;;;;;;;13.30;10.75;;;;;;;;;;5035646;28;20502;-66
2021/05/06 11:52:01;;;;;;;17.38;10.13;;;;;;;;;;5036122;28;20036;-67
2021/05/06 11:54:29;;;;;;;13.82;8.48;;;;;;;;;;5036028;28;20029;-68
2021/05/06 11:56:57;;;;;;;12.52;8.88;;;;;;;;;;5035672;28;20044;-68
2021/05/06 11:59:24;;;;;;;11.90;6.13;;;;;;;;;;5035859;28;20422;-68
2021/05/06 12:01:51;;;;;;;12.38;6.45;;;;;;;;;;5035775;28;20029;-68
2021/05/06 12:04:34;;;;;;;10.73;6.80;;;;;;;;;;5035805;28;20025;-68
2021/05/06 12:07:11;;;;;;;12.02;5.63;;;;;;;;;;5035137;28;20467;-68
2021/05/06 12:09:37;;;;;;;11.40;5.57;;;;;;;;;;5035339;28;20495;-69
2021/05/06 12:12:03;;;;;;;28.83;6.07;;;;;;;;;;5035493;28;20423;-68
2021/05/06 12:14:29;;;;;;;9.93;5.07;;;;;;;;;;5040883;28;20039;-70
2021/05/06 12:16:55;;;;;;;11.82;5.78;;;;;;;;;;5071820;28;20041;-69
2021/05/06 12:19:21;;;;;;;9.68;5.35;;;;;;;;;;5074854;28;20404;-67
2021/05/06 12:21:51;;;;;;;6.00;4.53;;;;;;;;;;5074915;28;20032;-67
2021/05/06 12:24:35;;;;;;;20.33;6.60;;;;;;;;;;5056899;28;20577;-68
2021/05/06 12:27:17;;;;;;;13.90;5.15;;;;;;;;;;5045996;28;20411;-69
2021/05/06 12:29:44;;;;;;;9.50;5.45;;;;;;;;;;5035420;28;20476;-68
2021/05/06 12:32:18;;;;;;;8.40;4.63;;;;;;;;;;5035831;28;20021;-69
2021/05/06 12:34:44;;;;;;;8.93;7.07;;;;;;;;;;5015440;28;20105;-71
2021/05/06 12:37:10;;;;;;;14.20;7.00;;;;;;;;;;5015913;28;20052;-70
2021/05/06 12:39:36;;;;;;;8.60;6.38;;;;;;;;;;5015792;28;20384;-70
2021/05/06 12:42:05;;;;;;;6.78;5.20;;;;;;;;;;5015840;28;20029;-71
2021/05/06 12:44:35;;;;;;;8.82;5.50;;;;;;;;;;5033427;28;20025;-70
2021/05/06 12:47:21;;;;;;;8.27;5.45;;;;;;;;;;5035239;28;20037;-70
2021/05/06 12:49:49;;;;;;;8.18;5.82;;;;;;;;;;5020820;28;20529;-70
2021/05/06 12:52:31;;;;;;;6.60;5.90;;;;;;;;;;5034183;28;20025;-70
2021/05/06 12:54:57;;;;;;;7.38;5.90;;;;;;;;;;5014995;28;20038;-70
2021/05/06 12:57:23;;;;;;;9.77;4.93;;;;;;;;;;5015904;28;20030;-68
2021/05/06 12:59:50;;;;;;;6.47;4.75;;;;;;;;;;5015148;28;20029;-69
2021/05/06 13:02:16;;;;;;;7.35;5.07;;;;;;;;;;5014316;28;20021;-70
2021/05/06 13:04:44;;;;;;;8.63;4.78;;;;;;;;;;5014654;28;20025;-71
2021/05/06 13:07:10;;;;;;;11.70;4.50;;;;;;;;;;5014413;28;20045;-72
2021/05/06 13:09:40;;;;;;;5.00;4.32;;;;;;;;;;5014663;28;20427;-72
2021/05/06 13:12:14;;;;;;;8.90;5.32;;;;;;;;;;5014889;28;20032;-71
2021/05/06 13:14:44;;;;;;;39.63;6.03;;;;;;;;;;5012696;28;20026;-74
2021/05/06 13:17:27;;;;;;;4.97;4.13;;;;;;;;;;5013843;28;20530;-73
2021/05/06 13:19:53;;;;;;;6.35;4.30;;;;;;;;;;5013704;28;20113;-73
2021/05/06 13:22:20;;;;;;;6.90;4.18;;;;;;;;;;5014165;28;20377;-70
2021/05/06 13:24:48;;;;;;;6.93;5.00;;;;;;;;;;5014035;28;20468;-71
2021/05/06 13:27:15;;;;;;;5.85;3.88;;;;;;;;;;5013835;28;20045;-75
2021/05/06 13:29:49;;;;;;;9.18;4.35;;;;;;;;;;5014125;28;20022;-74
2021/05/06 13:32:15;;;;;;;7.50;3.80;;;;;;;;;;5013234;28;20033;-74
2021/05/06 13:34:56;;;;;;;5.85;3.72;;;;;;;;;;5013947;28;20498;-74
2021/05/06 13:37:22;;;;;;;5.75;4.00;;;;;;;;;;5013934;28;20029;-74
2021/05/06 13:39:48;;;;;;;4.72;3.25;;;;;;;;;;5014754;28;20030;-73
2021/05/06 13:42:16;;;;;;;10.88;4.28;;;;;;;;;;5013891;28;20026;-72
2021/05/06 13:44:42;;;;;;;5.78;3.72;;;;;;;;;;5013123;28;20025;-72
2021/05/06 13:47:09;;;;;;;6.45;3.28;;;;;;;;;;5013957;28;20077;-72
2021/05/06 13:49:35;;;;;;;4.38;3.58;;;;;;;;;;5013884;28;20095;-72
2021/05/06 13:52:01;;;;;;;3.97;3.55;;;;;;;;;;5014156;28;20026;-73
2021/05/06 13:54:28;;;;;;;4.72;3.47;;;;;;;;;;5013524;28;20566;-72
2021/05/06 13:56:55;;;;;;;4.53;3.47;;;;;;;;;;5020613;28;20025;-73
2021/05/06 13:59:21;;;;;;;6.03;3.30;;;;;;;;;;5022987;28;20471;-73
2021/05/06 14:01:54;;;;;;;5.93;3.53;;;;;;;;;;5022037;28;20116;-72
2021/05/06 14:04:20;;;;;;;7.85;3.67;;;;;;;;;;5021211;28;20014;-74
2021/05/06 14:06:46;;;;;;;8.88;3.38;;;;;;;;;;5021288;28;20440;-73
2021/05/06 14:09:16;;;;;;;6.05;3.17;;;;;;;;;;5021897;28;20021;-74
2021/05/06 14:11:43;;;;;;;4.78;3.33;;;;;;;;;;5023146;28;20022;-74
2021/05/06 14:14:10;;;;;;;8.30;3.45;;;;;;;;;;5027800;28;20017;-71
2021/05/06 14:16:37;;;;;;;7.00;3.17;;;;;;;;;;5033337;28;20379;-72
2021/05/06 14:19:03;;;;;;;3.97;3.35;;;;;;;;;;5042530;28;20378;-71
2021/05/06 14:21:30;;;;;;;5.72;3.30;;;;;;;;;;5053006;28;20024;-71
2021/05/06 14:23:56;;;;;;;3.50;2.78;;;;;;;;;;5052830;28;20040;-71
2021/05/06 14:26:22;;;;;;;5.30;3.20;;;;;;;;;;5052750;28;20052;-72
2021/05/06 14:28:48;;;;;;;16.95;4.00;;;;;;;;;;5052367;28;20541;-71
2021/05/06 14:31:14;;;;;;;14.63;3.10;;;;;;;;;;5053756;28;20049;-71
2021/05/06 14:33:40;;;;;;;9.98;3.25;;;;;;;;;;5052783;28;20102;-72
2021/05/06 14:36:07;;;;;;;5.50;3.13;;;;;;;;;;5052350;28;20079;-71
2021/05/06 14:38:33;;;;;;;3.92;2.63;;;;;;;;;;5025685;28;20052;-73
2021/05/06 14:40:59;;;;;;;5.05;3.03;;;;;;;;;;5032132;28;20029;-73
2021/05/06 14:43:25;;;;;;;10.82;3.55;;;;;;;;;;5033941;28;20083;-73
2021/05/06 14:45:51;;;;;;;31.80;3.25;;;;;;;;;;5037428;28;20033;-72
2021/05/06 14:48:18;;;;;;;4.05;2.60;;;;;;;;;;5037061;28;20120;-71
2021/05/06 14:50:44;;;;;;;2.80;2.00;;;;;;;;;;5036726;28;20029;-71
2021/05/06 14:53:10;;;;;;;5.15;2.42;;;;;;;;;;5037039;28;20479;-70
2021/05/06 14:55:36;;;;;;;10.63;3.13;;;;;;;;;;5036515;28;20067;-70
2021/05/06 14:58:03;;;;;;;5.53;2.72;;;;;;;;;;5036827;28;20551;-71
2021/05/06 15:00:29;;;;;;;7.68;2.03;;;;;;;;;;5036589;28;20387;-71
2021/05/06 15:02:55;;;;;;;3.92;2.53;;;;;;;;;;5036864;28;20549;-71
2021/05/06 15:05:21;;;;;;;3.17;2.72;;;;;;;;;;5036593;28;20427;-71
2021/05/06 15:07:48;;;;;;;5.80;2.20;;;;;;;;;;5036427;28;20041;-70
2021/05/06 15:10:14;;;;;;;7.15;2.33;;;;;;;;;;5036706;28;20111;-71
2021/05/06 15:12:43;;;;;;;3.20;2.42;;;;;;;;;;5035784;28;20028;-72
2021/05/06 15:15:09;;;;;;;8.38;2.95;;;;;;;;;;5036831;28;20669;-70
2021/05/06 15:17:35;;;;;;;2.97;2.33;;;;;;;;;;5036225;28;20036;-71
2021/05/06 15:20:01;;;;;;;3.85;2.92;;;;;;;;;;5036628;28;20029;-70
2021/05/06 15:22:28;;;;;;;5.95;2.47;;;;;;;;;;5036095;28;20030;-71
2021/05/06 15:24:54;;;;;;;5.63;2.50;;;;;;;;;;5033168;28;20017;-73
2021/05/06 15:27:20;;;;;;;7.38;2.95;;;;;;;;;;5035423;28;20148;-72
2021/05/06 15:29:46;;;;;;;5.90;3.55;;;;;;;;;;5032713;28;20036;-73
2021/05/06 15:32:12;;;;;;;3.65;2.83;;;;;;;;;;5034626;28;20025;-77
2021/05/06 15:34:38;;;;;;;2.90;2.55;;;;;;;;;;5035131;28;20048;-70
2021/05/06 15:37:05;;;;;;;4.85;2.22;;;;;;;;;;5034969;28;20034;-70
2021/05/06 15:39:31;;;;;;;8.20;2.92;;;;;;;;;;5035057;28;20079;-73
2021/05/06 15:41:57;;;;;;;5.20;2.50;;;;;;;;;;5036155;28;20468;-70
2021/05/06 15:44:23;;;;;;;5.78;3.60;;;;;;;;;;5034640;28;20026;-74
2021/05/06 15:46:49;;;;;;;7.70;3.05;;;;;;;;;;5034518;28;20362;-72
2021/05/06 15:49:15;;;;;;;3.03;2.38;;;;;;;;;;5034206;28;20479;-72
2021/05/06 15:51:41;;;;;;;2.78;2.20;;;;;;;;;;5050112;28;20025;-75
2021/05/06 15:54:07;;;;;;;6.78;2.78;;;;;;;;;;5055239;28;20028;-76
2021/05/06 15:56:33;;;;;;;6.18;2.65;;;;;;;;;;5055002;28;20032;-75
2021/05/06 15:59:00;;;;;;;16.38;3.60;;;;;;;;;;5055707;28;20383;-74
2021/05/06 16:01:27;;;;;;;4.45;3.00;;;;;;;;;;5055960;28;20021;-74
2021/05/06 16:04:02;;;;;;;6.10;2.75;;;;;;;;;;5055239;28;20025;-74
2021/05/06 16:06:28;;;;;;;5.72;3.30;;;;;;;;;;5054625;28;20021;-79
2021/05/06 16:08:54;;;;;;;3.55;2.80;;;;;;;;;;5054984;28;20462;-76
2021/05/06 16:11:20;;;;;;;5.53;3.30;;;;;;;;;;5055732;28;20068;-77
2021/05/06 16:13:46;;;;;;;7.35;3.40;;;;;;;;;;5055787;28;20025;-78
2021/05/06 16:16:12;;;;;;;16.35;3.33;;;;;;;;;;5055005;28;20036;-75
2021/05/06 16:18:44;;;;;;;3.63;2.50;;;;;;;;;;5055490;28;20409;-74
2021/05/06 16:21:10;;;;;;;4.28;3.03;;;;;;;;;;5054633;28;20466;-73
2021/05/06 16:23:38;;;;;;;3.05;2.20;;;;;;;;;;5055046;28;20083;-74
2021/05/06 16:26:05;;;;;;;4.13;2.35;;;;;;;;;;5055159;28;20356;-73
2021/05/06 16:28:31;;;;;;;8.43;2.83;;;;;;;;;;5055075;28;20037;-74
2021/05/06 16:30:57;;;;;;;12.18;6.38;;;;;;;;;;5054908;28;20897;-73
2021/05/06 16:33:23;;;;;;;70.20;16.63;;;;;;;;;;5055044;28;20059;-68
2021/05/06 16:35:58;;;;;;;93.10;28.02;;;;;;;;;;5054702;28;20036;-69
2021/05/06 16:38:25;;;;;;;111.82;34.95;;;;;;;;;;5055015;28;20050;-71
2021/05/06 16:40:55;;;;;;;286.00;99.72;;;;;;;;;;5054559;28;20024;-74
2021/05/06 16:46:07;;;;;;;174.73;61.67;;;;;;;;;;5041500;28;20374;-75
2021/05/06 16:48:34;;;;;;;328.00;113.22;;;;;;;;;;5054952;28;20025;-73
2021/05/06 16:51:00;;;;;;;270.20;88.15;;;;;;;;;;5054904;28;20031;-74
2021/05/06 16:53:26;;;;;;;261.92;84.30;;;;;;;;;;5055716;28;20036;-74
2021/05/06 16:55:52;;;;;;;216.63;76.43;;;;;;;;;;5055183;28;20104;-73
2021/05/06 16:58:18;;;;;;;202.90;69.10;;;;;;;;;;5055141;28;20546;-73
2021/05/06 17:00:44;;;;;;;221.55;70.43;;;;;;;;;;5053976;28;20032;-72
2021/05/06 17:03:10;;;;;;;169.95;61.85;;;;;;;;;;5054609;28;20108;-72
2021/05/06 17:05:36;;;;;;;175.27;60.80;;;;;;;;;;5054578;28;20029;-74
2021/05/06 17:08:02;;;;;;;165.52;55.20;;;;;;;;;;5054385;28;20060;-75
2021/05/06 17:10:28;;;;;;;161.30;52.53;;;;;;;;;;5056037;28;20071;-78
2021/05/06 17:12:56;;;;;;;136.65;45.47;;;;;;;;;;5054992;28;20039;-73
2021/05/06 17:15:22;;;;;;;135.05;46.95;;;;;;;;;;5055490;28;20021;-74
2021/05/06 17:17:48;;;;;;;118.97;39.25;;;;;;;;;;5055081;28;20036;-74
2021/05/06 17:20:14;;;;;;;113.40;43.65;;;;;;;;;;5055037;28;20048;-75
2021/05/06 17:22:43;;;;;;;95.57;38.47;;;;;;;;;;5054232;28;20072;-68
2021/05/06 17:25:09;;;;;;;108.53;38.45;;;;;;;;;;5054222;28;20028;-75
2021/05/06 17:27:36;;;;;;;107.90;34.00;;;;;;;;;;5053053;28;20403;-74
2021/05/06 17:30:02;;;;;;;100.05;34.08;;;;;;;;;;5053780;28;20497;-74
2021/05/06 17:32:29;;;;;;;47.75;21.48;;;;;;;;;;5052336;28;20025;-76
2021/05/06 17:34:55;;;;;;;40.38;18.55;;;;;;;;;;5052414;28;20383;-72